sensor_id;sensor_type;location;lat;lon;timestamp;P1;durP1;ratioP1;P2;durP2;ratioP2
59766;SDS011;46248;58.364;25.582;2023-02-15T00:02:38;3.60;;;1.80;;
59766;SDS011;46248;58.364;25.582;2023-02-15T00:06:02;4.82;;;1.63;;
59766;SDS011;46248;58.364;25.582;2023-02-15T00:09:28;2.65;;;1.63;;
59766;SDS011;46248;58.364;25.582;2023-02-15T00:12:51;3.10;;;1.27;;
59766;SDS011;46248;58.364;25.582;2023-02-15T00:16:13;3.65;;;1.80;;
59766;SDS011;46248;58.364;25.582;2023-02-15T00:19:36;2.50;;;1.20;;
59766;SDS011;46248;58.364;25.582;2023-02-15T00:23:00;2.05;;;1.10;;
59766;SDS011;46248;58.364;25.582;2023-02-15T00:26:25;2.40;;;1.23;;
59766;SDS011;46248;58.364;25.582;2023-02-15T00:29:49;1.20;;;0.90;;
59766;SDS011;46248;58.364;25.582;2023-02-15T00:33:12;3.13;;;1.05;;
59766;SDS011;46248;58.364;25.582;2023-02-15T00:36:34;3.70;;;1.33;;
59766;SDS011;46248;58.364;25.582;2023-02-15T00:39:57;0.98;;;0.57;;
59766;SDS011;46248;58.364;25.582;2023-02-15T00:43:22;1.65;;;0.77;;
59766;SDS011;46248;58.364;25.582;2023-02-15T00:46:45;1.63;;;1.15;;
59766;SDS011;46248;58.364;25.582;2023-02-15T00:50:08;2.95;;;0.90;;
59766;SDS011;46248;58.364;25.582;2023-02-15T00:53:32;1.92;;;1.02;;
59766;SDS011;46248;58.364;25.582;2023-02-15T00:56:58;3.55;;;0.95;;
59766;SDS011;46248;58.364;25.582;2023-02-15T01:00:24;2.30;;;0.80;;
59766;SDS011;46248;58.364;25.582;2023-02-15T01:03:47;3.25;;;0.75;;
59766;SDS011;46248;58.364;25.582;2023-02-15T01:07:10;4.45;;;1.23;;
59766;SDS011;46248;58.364;25.582;2023-02-15T01:10:33;2.60;;;1.15;;
59766;SDS011;46248;58.364;25.582;2023-02-15T01:14:00;2.17;;;1.33;;
59766;SDS011;46248;58.364;25.582;2023-02-15T01:17:25;1.55;;;0.80;;
59766;SDS011;46248;58.364;25.582;2023-02-15T01:20:48;1.45;;;0.95;;
59766;SDS011;46248;58.364;25.582;2023-02-15T01:24:12;2.08;;;1.40;;
59766;SDS011;46248;58.364;25.582;2023-02-15T01:27:35;2.83;;;1.05;;
59766;SDS011;46248;58.364;25.582;2023-02-15T01:30:58;1.67;;;0.80;;
59766;SDS011;46248;58.364;25.582;2023-02-15T01:34:28;1.55;;;0.82;;
59766;SDS011;46248;58.364;25.582;2023-02-15T01:37:52;2.08;;;1.20;;
59766;SDS011;46248;58.364;25.582;2023-02-15T01:41:15;5.75;;;1.52;;
59766;SDS011;46248;58.364;25.582;2023-02-15T01:44:47;4.68;;;1.55;;
59766;SDS011;46248;58.364;25.582;2023-02-15T01:48:15;3.83;;;1.65;;
59766;SDS011;46248;58.364;25.582;2023-02-15T01:51:44;1.95;;;1.20;;
59766;SDS011;46248;58.364;25.582;2023-02-15T01:55:10;3.58;;;1.65;;
59766;SDS011;46248;58.364;25.582;2023-02-15T01:58:33;4.72;;;1.70;;
59766;SDS011;46248;58.364;25.582;2023-02-15T06:33:16;12.88;;;8.05;;
59766;SDS011;46248;58.364;25.582;2023-02-15T06:36:38;15.63;;;7.82;;
59766;SDS011;46248;58.364;25.582;2023-02-15T06:40:00;19.70;;;11.60;;
59766;SDS011;46248;58.364;25.582;2023-02-15T06:43:22;30.40;;;15.23;;
59766;SDS011;46248;58.364;25.582;2023-02-15T06:46:44;39.35;;;17.40;;
59766;SDS011;46248;58.364;25.582;2023-02-15T06:50:08;66.13;;;23.55;;
59766;SDS011;46248;58.364;25.582;2023-02-15T06:53:31;60.20;;;20.52;;
59766;SDS011;46248;58.364;25.582;2023-02-15T06:56:53;74.60;;;25.63;;
59766;SDS011;46248;58.364;25.582;2023-02-15T07:00:15;35.60;;;14.15;;
59766;SDS011;46248;58.364;25.582;2023-02-15T07:03:37;23.30;;;9.23;;
59766;SDS011;46248;58.364;25.582;2023-02-15T07:07:01;31.55;;;12.80;;
59766;SDS011;46248;58.364;25.582;2023-02-15T07:10:22;31.27;;;12.27;;
59766;SDS011;46248;58.364;25.582;2023-02-15T07:13:45;28.60;;;10.80;;
59766;SDS011;46248;58.364;25.582;2023-02-15T07:17:07;41.03;;;13.60;;
59766;SDS011;46248;58.364;25.582;2023-02-15T07:20:49;46.42;;;18.55;;
59766;SDS011;46248;58.364;25.582;2023-02-15T07:24:13;39.72;;;15.98;;
59766;SDS011;46248;58.364;25.582;2023-02-15T07:27:35;35.83;;;15.95;;
59766;SDS011;46248;58.364;25.582;2023-02-15T07:30:57;33.42;;;18.17;;
59766;SDS011;46248;58.364;25.582;2023-02-15T07:34:19;24.90;;;13.43;;
59766;SDS011;46248;58.364;25.582;2023-02-15T07:37:41;28.55;;;15.57;;
59766;SDS011;46248;58.364;25.582;2023-02-15T07:41:05;32.17;;;15.40;;
59766;SDS011;46248;58.364;25.582;2023-02-15T07:44:28;29.90;;;15.20;;
59766;SDS011;46248;58.364;25.582;2023-02-15T07:47:50;37.15;;;16.48;;
59766;SDS011;46248;58.364;25.582;2023-02-15T07:51:12;30.95;;;13.35;;
59766;SDS011;46248;58.364;25.582;2023-02-15T07:54:35;44.08;;;20.20;;
59766;SDS011;46248;58.364;25.582;2023-02-15T07:57:59;81.05;;;37.72;;
59766;SDS011;46248;58.364;25.582;2023-02-15T08:01:22;79.75;;;35.00;;
59766;SDS011;46248;58.364;25.582;2023-02-15T08:04:45;56.67;;;24.88;;
59766;SDS011;46248;58.364;25.582;2023-02-15T08:08:07;79.28;;;30.25;;
59766;SDS011;46248;58.364;25.582;2023-02-15T08:11:50;63.42;;;25.38;;
59766;SDS011;46248;58.364;25.582;2023-02-15T08:15:13;46.20;;;18.80;;
59766;SDS011;46248;58.364;25.582;2023-02-15T08:18:35;30.98;;;13.07;;
59766;SDS011;46248;58.364;25.582;2023-02-15T08:21:57;22.13;;;10.07;;
59766;SDS011;46248;58.364;25.582;2023-02-15T08:25:21;15.68;;;7.38;;
59766;SDS011;46248;58.364;25.582;2023-02-15T08:28:43;16.65;;;8.50;;
59766;SDS011;46248;58.364;25.582;2023-02-15T08:32:08;19.38;;;11.18;;
59766;SDS011;46248;58.364;25.582;2023-02-15T08:35:33;16.02;;;7.45;;
59766;SDS011;46248;58.364;25.582;2023-02-15T08:38:57;19.10;;;8.05;;
59766;SDS011;46248;58.364;25.582;2023-02-15T08:42:19;16.55;;;7.70;;
59766;SDS011;46248;58.364;25.582;2023-02-15T08:45:41;12.05;;;5.70;;
59766;SDS011;46248;58.364;25.582;2023-02-15T08:49:04;15.82;;;4.72;;
59766;SDS011;46248;58.364;25.582;2023-02-15T08:52:27;14.63;;;5.53;;
59766;SDS011;46248;58.364;25.582;2023-02-15T08:55:54;11.60;;;4.90;;
59766;SDS011;46248;58.364;25.582;2023-02-15T08:59:18;19.48;;;4.78;;
59766;SDS011;46248;58.364;25.582;2023-02-15T09:02:42;18.88;;;9.30;;
59766;SDS011;46248;58.364;25.582;2023-02-15T09:06:05;52.60;;;16.48;;
59766;SDS011;46248;58.364;25.582;2023-02-15T09:09:27;27.65;;;9.13;;
59766;SDS011;46248;58.364;25.582;2023-02-15T09:12:51;15.98;;;7.07;;
59766;SDS011;46248;58.364;25.582;2023-02-15T09:16:13;17.73;;;6.55;;
59766;SDS011;46248;58.364;25.582;2023-02-15T09:19:36;12.85;;;5.75;;
59766;SDS011;46248;58.364;25.582;2023-02-15T09:23:00;13.25;;;5.60;;
59766;SDS011;46248;58.364;25.582;2023-02-15T09:26:22;19.35;;;8.88;;
59766;SDS011;46248;58.364;25.582;2023-02-15T09:29:46;20.33;;;8.13;;
59766;SDS011;46248;58.364;25.582;2023-02-15T09:33:07;28.90;;;9.43;;
59766;SDS011;46248;58.364;25.582;2023-02-15T09:36:31;21.98;;;6.65;;
59766;SDS011;46248;58.364;25.582;2023-02-15T09:39:55;24.90;;;9.38;;
59766;SDS011;46248;58.364;25.582;2023-02-15T09:43:20;18.83;;;6.72;;
59766;SDS011;46248;58.364;25.582;2023-02-15T09:47:01;9.52;;;5.45;;
59766;SDS011;46248;58.364;25.582;2023-02-15T09:50:40;15.20;;;7.45;;
59766;SDS011;46248;58.364;25.582;2023-02-15T09:54:23;11.65;;;5.85;;
59766;SDS011;46248;58.364;25.582;2023-02-15T09:58:10;17.23;;;7.30;;
59766;SDS011;46248;58.364;25.582;2023-02-15T10:01:43;9.45;;;5.88;;
59766;SDS011;46248;58.364;25.582;2023-02-15T10:05:17;10.25;;;4.00;;
59766;SDS011;46248;58.364;25.582;2023-02-15T10:09:00;8.10;;;4.82;;
59766;SDS011;46248;58.364;25.582;2023-02-15T10:12:48;12.48;;;5.93;;
59766;SDS011;46248;58.364;25.582;2023-02-15T10:16:21;22.70;;;7.18;;
59766;SDS011;46248;58.364;25.582;2023-02-15T10:19:55;12.50;;;5.97;;
59766;SDS011;46248;58.364;25.582;2023-02-15T10:23:38;19.52;;;9.63;;
59766;SDS011;46248;58.364;25.582;2023-02-15T10:27:11;12.30;;;6.07;;
59766;SDS011;46248;58.364;25.582;2023-02-15T10:30:36;18.15;;;8.07;;
59766;SDS011;46248;58.364;25.582;2023-02-15T10:34:12;11.32;;;5.03;;
59766;SDS011;46248;58.364;25.582;2023-02-15T10:37:41;15.02;;;6.47;;
59766;SDS011;46248;58.364;25.582;2023-02-15T10:41:17;12.77;;;7.07;;
59766;SDS011;46248;58.364;25.582;2023-02-15T10:44:55;11.25;;;4.57;;
59766;SDS011;46248;58.364;25.582;2023-02-15T10:48:45;11.15;;;5.45;;
59766;SDS011;46248;58.364;25.582;2023-02-15T10:52:24;14.70;;;5.95;;
59766;SDS011;46248;58.364;25.582;2023-02-15T10:55:55;9.40;;;4.40;;
59766;SDS011;46248;58.364;25.582;2023-02-15T11:03:19;16.17;;;7.10;;
59766;SDS011;46248;58.364;25.582;2023-02-15T11:06:54;11.73;;;5.95;;
59766;SDS011;46248;58.364;25.582;2023-02-15T11:10:25;15.27;;;6.78;;
59766;SDS011;46248;58.364;25.582;2023-02-15T11:13:53;18.38;;;6.28;;
59766;SDS011;46248;58.364;25.582;2023-02-15T11:17:19;12.95;;;6.05;;
59766;SDS011;46248;58.364;25.582;2023-02-15T11:20:46;13.90;;;6.65;;
59766;SDS011;46248;58.364;25.582;2023-02-15T11:27:40;11.93;;;7.07;;
59766;SDS011;46248;58.364;25.582;2023-02-15T11:31:11;25.25;;;11.27;;
59766;SDS011;46248;58.364;25.582;2023-02-15T11:34:38;22.75;;;10.05;;
59766;SDS011;46248;58.364;25.582;2023-02-15T11:38:06;8.17;;;4.93;;
59766;SDS011;46248;58.364;25.582;2023-02-15T11:41:37;14.93;;;4.80;;
59766;SDS011;46248;58.364;25.582;2023-02-15T11:45:07;10.05;;;6.05;;
59766;SDS011;46248;58.364;25.582;2023-02-15T11:48:43;13.18;;;6.80;;
59766;SDS011;46248;58.364;25.582;2023-02-15T11:52:06;9.27;;;6.03;;
59766;SDS011;46248;58.364;25.582;2023-02-15T11:55:32;10.30;;;5.13;;
59766;SDS011;46248;58.364;25.582;2023-02-15T11:58:56;11.75;;;6.43;;
59766;SDS011;46248;58.364;25.582;2023-02-15T12:02:22;11.65;;;6.40;;
59766;SDS011;46248;58.364;25.582;2023-02-15T12:05:47;18.40;;;8.68;;
59766;SDS011;46248;58.364;25.582;2023-02-15T12:09:17;12.60;;;8.60;;
59766;SDS011;46248;58.364;25.582;2023-02-15T12:12:46;11.98;;;6.22;;
59766;SDS011;46248;58.364;25.582;2023-02-15T12:16:09;9.55;;;5.85;;
59766;SDS011;46248;58.364;25.582;2023-02-15T12:19:36;25.33;;;11.05;;
59766;SDS011;46248;58.364;25.582;2023-02-15T12:23:01;18.48;;;7.65;;
59766;SDS011;46248;58.364;25.582;2023-02-15T12:26:25;10.55;;;5.20;;
59766;SDS011;46248;58.364;25.582;2023-02-15T12:29:49;9.50;;;5.53;;
59766;SDS011;46248;58.364;25.582;2023-02-15T12:33:14;10.20;;;6.25;;
59766;SDS011;46248;58.364;25.582;2023-02-15T12:36:49;14.32;;;7.47;;
59766;SDS011;46248;58.364;25.582;2023-02-15T12:40:19;15.65;;;6.43;;
59766;SDS011;46248;58.364;25.582;2023-02-15T12:43:42;8.10;;;5.18;;
59766;SDS011;46248;58.364;25.582;2023-02-15T12:47:05;9.57;;;4.90;;
59766;SDS011;46248;58.364;25.582;2023-02-15T12:50:39;7.10;;;4.03;;
59766;SDS011;46248;58.364;25.582;2023-02-15T12:54:07;5.90;;;3.42;;
59766;SDS011;46248;58.364;25.582;2023-02-15T12:57:42;8.18;;;4.40;;
59766;SDS011;46248;58.364;25.582;2023-02-15T13:01:11;14.90;;;7.18;;
59766;SDS011;46248;58.364;25.582;2023-02-15T13:04:35;18.92;;;9.75;;
59766;SDS011;46248;58.364;25.582;2023-02-15T13:07:57;10.20;;;4.63;;
59766;SDS011;46248;58.364;25.582;2023-02-15T13:11:25;11.40;;;6.07;;
59766;SDS011;46248;58.364;25.582;2023-02-15T13:14:50;13.57;;;5.93;;
59766;SDS011;46248;58.364;25.582;2023-02-15T13:18:15;9.07;;;4.93;;
59766;SDS011;46248;58.364;25.582;2023-02-15T13:25:10;5.35;;;3.63;;
59766;SDS011;46248;58.364;25.582;2023-02-15T13:28:39;17.30;;;5.38;;
59766;SDS011;46248;58.364;25.582;2023-02-15T13:32:05;7.55;;;4.78;;
59766;SDS011;46248;58.364;25.582;2023-02-15T13:35:36;7.03;;;3.60;;
59766;SDS011;46248;58.364;25.582;2023-02-15T13:39:07;10.77;;;5.55;;
59766;SDS011;46248;58.364;25.582;2023-02-15T13:42:38;9.50;;;5.95;;
59766;SDS011;46248;58.364;25.582;2023-02-15T13:46:07;8.02;;;4.28;;
59766;SDS011;46248;58.364;25.582;2023-02-15T13:49:41;7.22;;;3.80;;
59766;SDS011;46248;58.364;25.582;2023-02-15T13:53:17;6.78;;;3.47;;
59766;SDS011;46248;58.364;25.582;2023-02-15T13:56:53;7.68;;;4.00;;
59766;SDS011;46248;58.364;25.582;2023-02-15T14:00:22;8.07;;;4.75;;
59766;SDS011;46248;58.364;25.582;2023-02-15T14:07:51;17.70;;;8.45;;
59766;SDS011;46248;58.364;25.582;2023-02-15T14:11:21;15.48;;;5.78;;
59766;SDS011;46248;58.364;25.582;2023-02-15T14:14:53;6.05;;;3.75;;
59766;SDS011;46248;58.364;25.582;2023-02-15T14:18:30;11.82;;;6.20;;
59766;SDS011;46248;58.364;25.582;2023-02-15T14:22:02;8.88;;;5.38;;
59766;SDS011;46248;58.364;25.582;2023-02-15T14:25:37;8.57;;;5.32;;
59766;SDS011;46248;58.364;25.582;2023-02-15T14:29:07;14.55;;;7.05;;
59766;SDS011;46248;58.364;25.582;2023-02-15T14:32:42;9.80;;;5.43;;
59766;SDS011;46248;58.364;25.582;2023-02-15T14:36:09;9.45;;;4.68;;
59766;SDS011;46248;58.364;25.582;2023-02-15T14:39:36;8.15;;;4.47;;
59766;SDS011;46248;58.364;25.582;2023-02-15T14:43:29;18.45;;;7.32;;
59766;SDS011;46248;58.364;25.582;2023-02-15T14:47:05;12.52;;;6.80;;
59766;SDS011;46248;58.364;25.582;2023-02-15T14:50:35;14.60;;;6.68;;
59766;SDS011;46248;58.364;25.582;2023-02-15T14:54:04;35.22;;;11.30;;
59766;SDS011;46248;58.364;25.582;2023-02-15T14:57:29;9.60;;;6.07;;
59766;SDS011;46248;58.364;25.582;2023-02-15T15:00:57;15.43;;;8.02;;
59766;SDS011;46248;58.364;25.582;2023-02-15T15:04:29;8.90;;;5.60;;
59766;SDS011;46248;58.364;25.582;2023-02-15T15:07:55;12.02;;;7.47;;
59766;SDS011;46248;58.364;25.582;2023-02-15T15:15:06;11.05;;;7.10;;
59766;SDS011;46248;58.364;25.582;2023-02-15T15:18:44;13.30;;;7.95;;
59766;SDS011;46248;58.364;25.582;2023-02-15T15:22:12;10.02;;;7.25;;
59766;SDS011;46248;58.364;25.582;2023-02-15T15:25:40;6.35;;;5.30;;
59766;SDS011;46248;58.364;25.582;2023-02-15T15:29:05;11.48;;;7.18;;
59766;SDS011;46248;58.364;25.582;2023-02-15T15:32:28;15.40;;;8.73;;
59766;SDS011;46248;58.364;25.582;2023-02-15T15:36:00;11.68;;;5.68;;
59766;SDS011;46248;58.364;25.582;2023-02-15T15:44:09;17.88;;;7.50;;
59766;SDS011;46248;58.364;25.582;2023-02-15T15:48:08;38.28;;;15.48;;
59766;SDS011;46248;58.364;25.582;2023-02-15T15:51:46;22.42;;;8.95;;
59766;SDS011;46248;58.364;25.582;2023-02-15T15:55:14;27.23;;;12.57;;
59766;SDS011;46248;58.364;25.582;2023-02-15T15:58:40;12.82;;;6.38;;
59766;SDS011;46248;58.364;25.582;2023-02-15T16:02:05;25.20;;;10.63;;
59766;SDS011;46248;58.364;25.582;2023-02-15T16:05:34;12.77;;;6.55;;
59766;SDS011;46248;58.364;25.582;2023-02-15T16:09:08;9.43;;;5.55;;
59766;SDS011;46248;58.364;25.582;2023-02-15T16:12:32;8.75;;;4.88;;
59766;SDS011;46248;58.364;25.582;2023-02-15T16:15:56;13.38;;;9.32;;
59766;SDS011;46248;58.364;25.582;2023-02-15T16:19:18;24.20;;;8.77;;
59766;SDS011;46248;58.364;25.582;2023-02-15T16:22:44;9.25;;;5.90;;
59766;SDS011;46248;58.364;25.582;2023-02-15T16:26:09;12.00;;;7.40;;
59766;SDS011;46248;58.364;25.582;2023-02-15T16:29:40;12.02;;;8.77;;
59766;SDS011;46248;58.364;25.582;2023-02-15T16:33:05;18.10;;;8.68;;
59766;SDS011;46248;58.364;25.582;2023-02-15T16:36:29;32.28;;;14.20;;
59766;SDS011;46248;58.364;25.582;2023-02-15T16:39:52;40.65;;;15.60;;
59766;SDS011;46248;58.364;25.582;2023-02-15T16:43:20;28.33;;;14.35;;
59766;SDS011;46248;58.364;25.582;2023-02-15T16:46:46;17.75;;;8.15;;
59766;SDS011;46248;58.364;25.582;2023-02-15T16:50:16;20.13;;;11.38;;
59766;SDS011;46248;58.364;25.582;2023-02-15T16:53:39;12.27;;;7.90;;
59766;SDS011;46248;58.364;25.582;2023-02-15T16:57:13;6.97;;;5.35;;
59766;SDS011;46248;58.364;25.582;2023-02-15T17:00:41;3.65;;;2.80;;
59766;SDS011;46248;58.364;25.582;2023-02-15T17:04:11;7.40;;;3.60;;
59766;SDS011;46248;58.364;25.582;2023-02-15T17:07:38;8.13;;;3.90;;
59766;SDS011;46248;58.364;25.582;2023-02-15T17:11:15;34.58;;;18.20;;
59766;SDS011;46248;58.364;25.582;2023-02-15T17:14:38;13.13;;;9.43;;
59766;SDS011;46248;58.364;25.582;2023-02-15T17:18:04;9.98;;;6.38;;
59766;SDS011;46248;58.364;25.582;2023-02-15T17:21:30;5.57;;;4.18;;
59766;SDS011;46248;58.364;25.582;2023-02-15T17:24:57;10.55;;;6.85;;
59766;SDS011;46248;58.364;25.582;2023-02-15T17:28:21;26.08;;;14.38;;
59766;SDS011;46248;58.364;25.582;2023-02-15T17:31:45;9.73;;;5.47;;
59766;SDS011;46248;58.364;25.582;2023-02-15T17:35:16;11.43;;;8.00;;
59766;SDS011;46248;58.364;25.582;2023-02-15T17:42:22;11.90;;;7.53;;
59766;SDS011;46248;58.364;25.582;2023-02-15T17:45:47;17.45;;;10.15;;
59766;SDS011;46248;58.364;25.582;2023-02-15T17:49:12;19.33;;;8.70;;
59766;SDS011;46248;58.364;25.582;2023-02-15T17:52:41;26.08;;;15.82;;
59766;SDS011;46248;58.364;25.582;2023-02-15T17:56:03;12.02;;;9.38;;
59766;SDS011;46248;58.364;25.582;2023-02-15T17:59:30;6.57;;;5.00;;
59766;SDS011;46248;58.364;25.582;2023-02-15T18:02:51;6.07;;;4.63;;
59766;SDS011;46248;58.364;25.582;2023-02-15T18:06:31;7.78;;;4.60;;
59766;SDS011;46248;58.364;25.582;2023-02-15T18:10:14;7.85;;;4.20;;
59766;SDS011;46248;58.364;25.582;2023-02-15T18:13:54;17.08;;;6.75;;
59766;SDS011;46248;58.364;25.582;2023-02-15T18:17:21;10.20;;;4.90;;
59766;SDS011;46248;58.364;25.582;2023-02-15T18:20:47;8.98;;;4.10;;
59766;SDS011;46248;58.364;25.582;2023-02-15T18:24:13;5.82;;;2.65;;
59766;SDS011;46248;58.364;25.582;2023-02-15T18:27:41;3.85;;;2.10;;
59766;SDS011;46248;58.364;25.582;2023-02-15T18:31:03;1.30;;;1.17;;
59766;SDS011;46248;58.364;25.582;2023-02-15T18:34:27;2.15;;;1.15;;
59766;SDS011;46248;58.364;25.582;2023-02-15T18:37:51;1.90;;;1.25;;
59766;SDS011;46248;58.364;25.582;2023-02-15T18:41:15;3.75;;;2.03;;
59766;SDS011;46248;58.364;25.582;2023-02-15T18:44:39;3.05;;;1.25;;
59766;SDS011;46248;58.364;25.582;2023-02-15T18:48:03;3.50;;;1.10;;
59766;SDS011;46248;58.364;25.582;2023-02-15T18:51:27;3.22;;;1.08;;
59766;SDS011;46248;58.364;25.582;2023-02-15T18:54:50;3.15;;;1.48;;
59766;SDS011;46248;58.364;25.582;2023-02-15T18:58:15;2.20;;;1.42;;
59766;SDS011;46248;58.364;25.582;2023-02-15T19:01:40;1.45;;;1.10;;
59766;SDS011;46248;58.364;25.582;2023-02-15T19:05:03;2.97;;;1.27;;
59766;SDS011;46248;58.364;25.582;2023-02-15T19:08:25;2.22;;;1.13;;
59766;SDS011;46248;58.364;25.582;2023-02-15T19:11:47;2.25;;;1.25;;
59766;SDS011;46248;58.364;25.582;2023-02-15T19:15:14;1.50;;;1.05;;
59766;SDS011;46248;58.364;25.582;2023-02-15T19:18:39;2.35;;;1.10;;
59766;SDS011;46248;58.364;25.582;2023-02-15T19:22:01;4.82;;;1.48;;
59766;SDS011;46248;58.364;25.582;2023-02-15T19:25:24;2.15;;;1.20;;
59766;SDS011;46248;58.364;25.582;2023-02-15T19:28:48;2.03;;;1.13;;
59766;SDS011;46248;58.364;25.582;2023-02-15T19:32:11;2.22;;;1.13;;
59766;SDS011;46248;58.364;25.582;2023-02-15T19:35:34;1.88;;;1.38;;
59766;SDS011;46248;58.364;25.582;2023-02-15T19:38:56;2.63;;;1.27;;
59766;SDS011;46248;58.364;25.582;2023-02-15T19:42:21;2.40;;;1.13;;
59766;SDS011;46248;58.364;25.582;2023-02-15T19:45:44;1.55;;;0.90;;
59766;SDS011;46248;58.364;25.582;2023-02-15T19:49:07;5.10;;;1.65;;
59766;SDS011;46248;58.364;25.582;2023-02-15T19:52:32;4.60;;;1.75;;
59766;SDS011;46248;58.364;25.582;2023-02-15T19:55:54;5.30;;;2.35;;
59766;SDS011;46248;58.364;25.582;2023-02-15T19:59:20;3.20;;;1.65;;
59766;SDS011;46248;58.364;25.582;2023-02-15T20:02:44;4.03;;;1.60;;
59766;SDS011;46248;58.364;25.582;2023-02-15T20:06:09;2.20;;;1.50;;
59766;SDS011;46248;58.364;25.582;2023-02-15T20:09:35;6.47;;;2.30;;
59766;SDS011;46248;58.364;25.582;2023-02-15T20:13:00;5.20;;;2.13;;
59766;SDS011;46248;58.364;25.582;2023-02-15T20:16:22;4.07;;;2.03;;
59766;SDS011;46248;58.364;25.582;2023-02-15T20:19:45;4.68;;;2.10;;
59766;SDS011;46248;58.364;25.582;2023-02-15T20:23:11;4.45;;;2.35;;
59766;SDS011;46248;58.364;25.582;2023-02-15T20:26:39;4.95;;;2.45;;
59766;SDS011;46248;58.364;25.582;2023-02-15T20:30:03;7.32;;;2.72;;
59766;SDS011;46248;58.364;25.582;2023-02-15T20:33:27;4.65;;;2.33;;
59766;SDS011;46248;58.364;25.582;2023-02-15T20:36:49;2.92;;;2.08;;
59766;SDS011;46248;58.364;25.582;2023-02-15T20:40:12;6.72;;;2.50;;
59766;SDS011;46248;58.364;25.582;2023-02-15T20:43:37;4.28;;;2.47;;
59766;SDS011;46248;58.364;25.582;2023-02-15T20:46:59;7.32;;;2.75;;
59766;SDS011;46248;58.364;25.582;2023-02-15T20:50:22;5.78;;;2.90;;
59766;SDS011;46248;58.364;25.582;2023-02-15T20:53:46;4.80;;;2.55;;
59766;SDS011;46248;58.364;25.582;2023-02-15T20:57:10;7.75;;;2.72;;
59766;SDS011;46248;58.364;25.582;2023-02-15T21:00:34;5.53;;;2.58;;
59766;SDS011;46248;58.364;25.582;2023-02-15T21:03:56;8.88;;;3.25;;
59766;SDS011;46248;58.364;25.582;2023-02-15T21:07:19;10.00;;;3.20;;
59766;SDS011;46248;58.364;25.582;2023-02-15T21:10:42;7.50;;;3.20;;
59766;SDS011;46248;58.364;25.582;2023-02-15T21:14:05;6.93;;;3.05;;
59766;SDS011;46248;58.364;25.582;2023-02-15T21:17:32;8.73;;;3.75;;
59766;SDS011;46248;58.364;25.582;2023-02-15T21:20:54;8.10;;;3.42;;
59766;SDS011;46248;58.364;25.582;2023-02-15T21:24:19;7.63;;;3.67;;
59766;SDS011;46248;58.364;25.582;2023-02-15T21:27:44;8.63;;;3.70;;
59766;SDS011;46248;58.364;25.582;2023-02-15T21:31:07;11.52;;;4.65;;
59766;SDS011;46248;58.364;25.582;2023-02-15T21:34:38;9.13;;;4.88;;
59766;SDS011;46248;58.364;25.582;2023-02-15T21:38:01;11.18;;;5.47;;
59766;SDS011;46248;58.364;25.582;2023-02-15T21:41:23;10.93;;;5.10;;
59766;SDS011;46248;58.364;25.582;2023-02-15T21:45:11;10.15;;;4.80;;
59766;SDS011;46248;58.364;25.582;2023-02-15T21:48:52;10.15;;;5.20;;
59766;SDS011;46248;58.364;25.582;2023-02-15T21:52:17;10.27;;;5.38;;
59766;SDS011;46248;58.364;25.582;2023-02-15T21:55:43;11.88;;;6.05;;
59766;SDS011;46248;58.364;25.582;2023-02-15T21:59:08;12.18;;;5.35;;
59766;SDS011;46248;58.364;25.582;2023-02-15T22:02:30;12.65;;;5.47;;
59766;SDS011;46248;58.364;25.582;2023-02-15T22:05:52;11.48;;;6.15;;
59766;SDS011;46248;58.364;25.582;2023-02-15T22:09:16;10.40;;;5.28;;
59766;SDS011;46248;58.364;25.582;2023-02-15T22:12:40;11.45;;;5.80;;
59766;SDS011;46248;58.364;25.582;2023-02-15T22:16:02;9.85;;;5.30;;
59766;SDS011;46248;58.364;25.582;2023-02-15T22:19:25;13.88;;;6.50;;
59766;SDS011;46248;58.364;25.582;2023-02-15T22:22:48;11.88;;;6.18;;
59766;SDS011;46248;58.364;25.582;2023-02-15T22:26:15;6.53;;;4.35;;
59766;SDS011;46248;58.364;25.582;2023-02-15T22:29:41;10.75;;;4.50;;
59766;SDS011;46248;58.364;25.582;2023-02-15T22:33:03;14.30;;;6.25;;
59766;SDS011;46248;58.364;25.582;2023-02-15T22:36:26;15.40;;;6.18;;
59766;SDS011;46248;58.364;25.582;2023-02-15T22:39:50;13.43;;;5.30;;
59766;SDS011;46248;58.364;25.582;2023-02-15T22:43:17;11.57;;;4.90;;
59766;SDS011;46248;58.364;25.582;2023-02-15T22:46:42;10.68;;;5.40;;
59766;SDS011;46248;58.364;25.582;2023-02-15T22:50:05;15.55;;;5.97;;
59766;SDS011;46248;58.364;25.582;2023-02-15T22:53:36;19.25;;;6.53;;
59766;SDS011;46248;58.364;25.582;2023-02-15T22:56:57;13.65;;;5.70;;
59766;SDS011;46248;58.364;25.582;2023-02-15T23:00:23;12.88;;;5.28;;
59766;SDS011;46248;58.364;25.582;2023-02-15T23:03:46;15.65;;;6.53;;
59766;SDS011;46248;58.364;25.582;2023-02-15T23:07:11;13.45;;;5.93;;
59766;SDS011;46248;58.364;25.582;2023-02-15T23:10:34;13.18;;;5.28;;
59766;SDS011;46248;58.364;25.582;2023-02-15T23:13:56;16.77;;;6.55;;
59766;SDS011;46248;58.364;25.582;2023-02-15T23:17:20;14.20;;;6.47;;
59766;SDS011;46248;58.364;25.582;2023-02-15T23:20:42;13.15;;;5.72;;
59766;SDS011;46248;58.364;25.582;2023-02-15T23:24:09;14.82;;;6.32;;
59766;SDS011;46248;58.364;25.582;2023-02-15T23:27:36;15.98;;;6.95;;
59766;SDS011;46248;58.364;25.582;2023-02-15T23:34:41;14.43;;;5.90;;
59766;SDS011;46248;58.364;25.582;2023-02-15T23:38:05;12.25;;;5.22;;
59766;SDS011;46248;58.364;25.582;2023-02-15T23:41:37;14.35;;;5.85;;
59766;SDS011;46248;58.364;25.582;2023-02-15T23:44:59;19.15;;;7.65;;
59766;SDS011;46248;58.364;25.582;2023-02-15T23:48:23;20.30;;;8.02;;
59766;SDS011;46248;58.364;25.582;2023-02-15T23:51:54;16.25;;;7.55;;
59766;SDS011;46248;58.364;25.582;2023-02-15T23:55:17;16.15;;;7.28;;
59766;SDS011;46248;58.364;25.582;2023-02-15T23:58:40;17.17;;;6.43;;
